createdAt,value
2022-10-01T00:01:02.965Z,101202.97
2022-10-01T00:03:31.734Z,101201.63
2022-10-01T00:06:19.168Z,101206.28
2022-10-01T00:08:49.068Z,101205.44
2022-10-01T00:11:18.719Z,101199.75
2022-10-01T00:13:46.301Z,101198.78
2022-10-01T00:16:15.683Z,101193.84
2022-10-01T00:18:44.041Z,101202.72
2022-10-01T00:21:21.849Z,101204.69
2022-10-01T00:23:55.435Z,101208.16
2022-10-01T00:26:23.635Z,101203.22
2022-10-01T00:28:53.527Z,101202.50
2022-10-01T00:31:21.301Z,101198.81
2022-10-01T00:33:48.941Z,101197.81
2022-10-01T00:36:16.125Z,101195.06
2022-10-01T00:38:43.343Z,101186.22
2022-10-01T00:41:10.740Z,101190.41
2022-10-01T00:43:42.460Z,101192.13
2022-10-01T00:46:21.404Z,101178.81
2022-10-01T00:49:07.175Z,101180.91
2022-10-01T00:51:39.818Z,101185.50
2022-10-01T00:54:19.473Z,101184.97
2022-10-01T00:56:47.319Z,101178.34
2022-10-01T00:59:16.323Z,101176.13
2022-10-01T01:01:44.331Z,101174.38
2022-10-01T01:04:17.320Z,101170.69
2022-10-01T01:06:55.849Z,101173.16
2022-10-01T01:09:25.090Z,101180.06
2022-10-01T01:11:52.392Z,101184.00
2022-10-01T01:14:34.611Z,101168.47
2022-10-01T01:17:08.598Z,101167.38
2022-10-01T01:19:38.604Z,101164.03
2022-10-01T01:22:07.703Z,101157.63
2022-10-01T01:24:47.028Z,101162.22
2022-10-01T01:27:16.387Z,101162.81
2022-10-01T01:30:01.435Z,101165.03
2022-10-01T01:32:31.755Z,101151.38
2022-10-01T01:35:01.127Z,101162.69
2022-10-01T01:37:31.968Z,101157.78
2022-10-01T01:39:59.911Z,101156.66
2022-10-01T01:42:31.290Z,101151.47
2022-10-01T01:45:00.122Z,101145.22
2022-10-01T01:47:33.007Z,101147.31
2022-10-01T01:50:02.866Z,101149.28
2022-10-01T01:52:30.505Z,101151.00
2022-10-01T01:54:58.135Z,101151.97
2022-10-01T01:57:26.429Z,101158.50
2022-10-01T01:59:54.450Z,101146.56
2022-10-01T02:02:30.753Z,101148.53
2022-10-01T02:05:00.780Z,101151.47
2022-10-01T02:07:53.503Z,101149.38
2022-10-01T02:10:23.836Z,101137.19
2022-10-01T02:13:01.953Z,101131.00
2022-10-01T02:15:48.219Z,101146.28
2022-10-01T02:18:18.217Z,101154.41
2022-10-01T02:20:47.917Z,101163.53
2022-10-01T02:23:22.452Z,101150.25
2022-10-01T02:25:52.370Z,101160.34
2022-10-01T02:28:22.809Z,101151.47
2022-10-01T02:30:55.359Z,101156.66
2022-10-01T02:33:25.079Z,101151.84
2022-10-01T02:35:53.722Z,101138.66
2022-10-01T02:38:22.727Z,101130.91
2022-10-01T02:40:52.913Z,101141.16
2022-10-01T02:43:26.109Z,101142.13
2022-10-01T02:45:56.634Z,101148.03
2022-10-01T02:48:24.180Z,101144.34
2022-10-01T02:51:00.975Z,101136.94
2022-10-01T02:53:28.256Z,101134.69
2022-10-01T02:55:56.671Z,101129.41
2022-10-01T02:58:24.345Z,101125.59
2022-10-01T03:00:51.834Z,101135.94
2022-10-01T03:03:19.169Z,101141.13
2022-10-01T03:05:46.394Z,101141.25
2022-10-01T03:08:13.662Z,101131.66
2022-10-01T03:10:44.687Z,101136.44
2022-10-01T03:13:14.088Z,101126.63
2022-10-01T03:15:41.370Z,101127.31
2022-10-01T03:18:08.598Z,101116.63
2022-10-01T03:20:35.834Z,101112.19
2022-10-01T03:23:03.087Z,101111.09
2022-10-01T03:25:30.248Z,101104.81
2022-10-01T03:27:58.665Z,101100.00
2022-10-01T03:30:26.985Z,101093.34
2022-10-01T03:32:54.215Z,101097.78
2022-10-01T03:35:21.492Z,101096.53
2022-10-01T03:37:49.403Z,101082.94
2022-10-01T03:40:16.625Z,101088.69
2022-10-01T03:42:43.897Z,101087.44
2022-10-01T03:45:11.099Z,101096.28
2022-10-01T03:47:39.487Z,101090.13
2022-10-01T03:50:06.988Z,101095.09
2022-10-01T03:52:34.214Z,101096.06
2022-10-01T03:55:01.423Z,101096.31
2022-10-01T03:57:28.812Z,101090.66
2022-10-01T03:59:56.168Z,101089.16
2022-10-01T04:02:24.211Z,101082.28
2022-10-01T04:04:51.624Z,101078.84
2022-10-01T04:07:19.043Z,101082.47
2022-10-01T04:09:48.242Z,101085.22
2022-10-01T04:12:15.623Z,101083.94
2022-10-01T04:14:42.791Z,101076.41
2022-10-01T04:17:10.147Z,101075.81
2022-10-01T04:19:37.365Z,101073.88
2022-10-01T04:22:04.618Z,101066.47
2022-10-01T04:24:31.822Z,101075.34
2022-10-01T04:26:59.178Z,101071.44
2022-10-01T04:29:26.342Z,101077.31
2022-10-01T04:31:54.528Z,101074.59
2022-10-01T04:34:41.750Z,101066.94
2022-10-01T04:37:09.053Z,101064.19
2022-10-01T04:39:36.220Z,101070.88
2022-10-01T04:42:03.613Z,101060.78
2022-10-01T04:44:31.301Z,101065.16
2022-10-01T04:46:58.650Z,101066.28
2022-10-01T04:49:25.958Z,101059.38
2022-10-01T04:51:53.267Z,101068.41
2022-10-01T04:54:20.459Z,101065.91
2022-10-01T04:56:47.840Z,101071.31
2022-10-01T04:59:15.018Z,101077.75
2022-10-01T05:01:42.437Z,101063.59
2022-10-01T05:04:09.814Z,101068.25
2022-10-01T05:06:37.243Z,101068.66
2022-10-01T05:09:04.539Z,101075.16
2022-10-01T05:11:32.286Z,101075.09
2022-10-01T05:14:00.162Z,101067.63
2022-10-01T05:16:27.631Z,101065.72
2022-10-01T05:18:54.941Z,101069.59
2022-10-01T05:21:22.203Z,101064.94
2022-10-01T05:23:49.352Z,101057.81
2022-10-01T05:26:16.841Z,101060.13
2022-10-01T05:28:44.735Z,101052.41
2022-10-01T05:31:12.277Z,101053.34
2022-10-01T05:33:40.409Z,101056.97
2022-10-01T05:36:07.759Z,101048.59
2022-10-01T05:38:37.705Z,101049.19
2022-10-01T05:41:05.182Z,101052.50
2022-10-01T05:43:32.399Z,101052.88
2022-10-01T05:46:00.577Z,101056.34
2022-10-01T05:48:28.039Z,101051.38
2022-10-01T05:50:55.279Z,101046.06
2022-10-01T05:53:23.639Z,101044.75
2022-10-01T05:55:51.043Z,101052.13
2022-10-01T05:58:18.305Z,101043.00
2022-10-01T06:00:45.645Z,101045.00
2022-10-01T06:03:13.227Z,101039.31
2022-10-01T06:05:41.030Z,101041.81
2022-10-01T06:08:09.769Z,101031.75
2022-10-01T06:10:37.884Z,101033.97
2022-10-01T06:13:08.222Z,101034.69
2022-10-01T06:15:38.177Z,101033.72
2022-10-01T06:18:06.508Z,101029.66
2022-10-01T06:20:33.846Z,101035.63
2022-10-01T06:23:01.370Z,101032.56
2022-10-01T06:25:31.860Z,101025.28
2022-10-01T06:27:59.847Z,101024.03
2022-10-01T06:30:31.976Z,101024.25
2022-10-01T06:33:09.543Z,101018.66
2022-10-01T06:35:43.349Z,101021.00
2022-10-01T06:38:11.491Z,101014.47
2022-10-01T06:40:39.417Z,101011.22
2022-10-01T06:43:08.459Z,101015.53
2022-10-01T06:45:40.681Z,101025.56
2022-10-01T06:48:08.622Z,101017.63
2022-10-01T06:50:35.907Z,101020.16
2022-10-01T06:53:04.198Z,101011.69
2022-10-01T06:55:32.692Z,101015.97
2022-10-01T06:58:04.555Z,101024.06
2022-10-01T07:00:33.452Z,101012.03
2022-10-01T07:03:01.108Z,101018.66
2022-10-01T07:05:28.543Z,101018.31
2022-10-01T07:07:55.791Z,101008.50
2022-10-01T07:10:23.311Z,101016.25
2022-10-01T07:12:51.229Z,101014.91
2022-10-01T07:15:22.773Z,101011.47
2022-10-01T07:17:50.825Z,101013.47
2022-10-01T07:20:19.914Z,101008.13
2022-10-01T07:22:48.552Z,101013.47
2022-10-01T07:25:15.910Z,101014.66
2022-10-01T07:27:43.164Z,101007.03
2022-10-01T07:30:10.657Z,101014.97
2022-10-01T07:32:38.020Z,101008.50
2022-10-01T07:35:06.025Z,101000.78
2022-10-01T07:37:33.315Z,101002.50
2022-10-01T07:40:04.237Z,101004.81
2022-10-01T07:42:35.669Z,100998.66
2022-10-01T07:45:06.673Z,100998.25
2022-10-01T07:47:33.942Z,101001.09
2022-10-01T07:50:01.228Z,101002.81
2022-10-01T07:52:28.844Z,100995.66
2022-10-01T07:54:56.063Z,100992.69
2022-10-01T07:57:23.484Z,100992.69
2022-10-01T07:59:54.955Z,100990.19
2022-10-01T08:02:23.078Z,100999.09
2022-10-01T08:05:08.889Z,100992.53
2022-10-01T08:07:36.918Z,100989.91
2022-10-01T08:10:04.668Z,100982.53
2022-10-01T08:12:31.916Z,100976.00
2022-10-01T08:14:59.452Z,100972.72
2022-10-01T08:17:29.481Z,100973.09
2022-10-01T08:19:56.884Z,100978.41
2022-10-01T08:22:24.225Z,100979.19
2022-10-01T08:24:51.485Z,100974.84
2022-10-01T08:27:18.724Z,100967.69
2022-10-01T08:29:46.018Z,100966.75
2022-10-01T08:32:13.292Z,100963.97
2022-10-01T08:34:40.604Z,100960.66
2022-10-01T08:37:07.873Z,100959.09
2022-10-01T08:39:36.040Z,100961.56
2022-10-01T08:42:03.382Z,100958.09
2022-10-01T08:44:42.619Z,100954.41
2022-10-01T08:47:16.387Z,100960.13
2022-10-01T08:49:48.587Z,100949.28
2022-10-01T08:52:21.542Z,100940.78
2022-10-01T08:54:57.032Z,100942.81
2022-10-01T08:57:25.698Z,100952.25
2022-10-01T08:59:55.024Z,100947.56
2022-10-01T09:02:22.381Z,100946.78
2022-10-01T09:04:51.954Z,100949.81
2022-10-01T09:07:28.976Z,100949.09
2022-10-01T09:10:05.777Z,100942.66
2022-10-01T09:12:53.309Z,100952.31
2022-10-01T09:15:29.439Z,100942.13
2022-10-01T09:18:11.639Z,100942.38
2022-10-01T09:20:42.230Z,100937.44
2022-10-01T09:23:28.976Z,100944.38
2022-10-01T09:26:00.089Z,100936.72
2022-10-01T09:28:27.395Z,100939.50
2022-10-01T09:30:55.912Z,100934.72
2022-10-01T09:33:36.868Z,100930.38
2022-10-01T09:36:19.884Z,100929.13
2022-10-01T09:38:52.360Z,100934.06
2022-10-01T09:41:19.890Z,100928.97
2022-10-01T09:43:47.912Z,100930.00
2022-10-01T09:46:17.317Z,100926.91
2022-10-01T09:48:46.287Z,100918.97
2022-10-01T09:51:16.668Z,100925.19
2022-10-01T09:53:46.873Z,100924.16
2022-10-01T09:56:21.801Z,100922.16
2022-10-01T09:58:52.923Z,100924.13
2022-10-01T10:01:42.426Z,100920.69
2022-10-01T10:04:09.880Z,100924.50
2022-10-01T10:06:38.317Z,100927.00
2022-10-01T10:09:14.735Z,100919.06
2022-10-01T10:11:45.731Z,100916.81
2022-10-01T10:14:25.075Z,100909.25
2022-10-01T10:16:52.378Z,100907.56
2022-10-01T10:19:25.989Z,100897.88
2022-10-01T10:21:54.691Z,100902.06
2022-10-01T10:24:27.368Z,100899.97
2022-10-01T10:26:56.122Z,100889.19
2022-10-01T10:29:31.138Z,100897.38
2022-10-01T10:32:14.496Z,100893.34
2022-10-01T10:34:44.176Z,100886.31
2022-10-01T10:37:13.892Z,100888.59
2022-10-01T10:39:43.241Z,100891.00
2022-10-01T10:42:15.172Z,100897.31
2022-10-01T10:44:43.922Z,100887.72
2022-10-01T10:47:13.670Z,100889.84
2022-10-01T10:49:45.230Z,100885.66
2022-10-01T10:52:28.991Z,100871.75
2022-10-01T10:55:00.147Z,100856.03
2022-10-01T10:57:31.173Z,100859.09
2022-10-01T11:00:03.623Z,100858.00
2022-10-01T11:02:33.236Z,100865.75
2022-10-01T11:05:05.584Z,100862.19
2022-10-01T11:07:33.453Z,100860.56
2022-10-01T11:10:23.469Z,100870.84
2022-10-01T11:12:57.435Z,100864.41
2022-10-01T11:15:43.734Z,100854.53
2022-10-01T11:18:29.789Z,100848.38
2022-10-01T11:21:10.828Z,100854.09
2022-10-01T11:23:40.847Z,100846.66
2022-10-01T11:26:09.916Z,100851.22
2022-10-01T11:28:50.460Z,100843.50
2022-10-01T11:31:22.644Z,100829.03
2022-10-01T11:33:52.748Z,100827.78
2022-10-01T11:36:36.172Z,100828.34
2022-10-01T11:39:12.671Z,100824.34
2022-10-01T11:41:43.304Z,100829.47
2022-10-01T11:44:16.597Z,100830.81
2022-10-01T11:46:56.149Z,100823.91
2022-10-01T11:49:29.258Z,100821.19
2022-10-01T11:52:07.020Z,100824.66
2022-10-01T11:54:35.238Z,100819.78
2022-10-01T11:57:23.273Z,100819.34
2022-10-01T12:00:00.144Z,100820.91
2022-10-01T12:02:33.306Z,100814.63
2022-10-01T12:05:10.358Z,100816.38
2022-10-01T12:07:43.310Z,100816.91
2022-10-01T12:10:26.700Z,100810.91
2022-10-01T12:13:04.400Z,100808.34
2022-10-01T12:15:37.696Z,100811.78
2022-10-01T12:18:20.294Z,100809.75
2022-10-01T12:20:58.503Z,100806.91
2022-10-01T12:23:31.885Z,100806.63
2022-10-01T12:26:05.204Z,100806.59
2022-10-01T12:28:38.958Z,100800.91
2022-10-01T12:31:09.425Z,100801.63
2022-10-01T12:33:51.327Z,100799.06
2022-10-01T12:36:37.718Z,100797.78
2022-10-01T12:39:25.078Z,100797.47
2022-10-01T12:42:12.280Z,100795.19
2022-10-01T12:44:39.556Z,100797.63
2022-10-01T12:47:25.438Z,100791.91
2022-10-01T12:49:52.719Z,100792.59
2022-10-01T12:52:19.957Z,100787.16
2022-10-01T12:55:06.725Z,100777.75
2022-10-01T12:57:52.856Z,100776.31
2022-10-01T13:00:22.297Z,100780.59
2022-10-01T13:02:58.649Z,100772.47
2022-10-01T13:05:25.844Z,100766.00
2022-10-01T13:08:13.319Z,100758.28
2022-10-01T13:11:06.990Z,100757.41
2022-10-01T13:13:34.741Z,100759.97
2022-10-01T13:16:01.996Z,100751.41
2022-10-01T13:18:32.425Z,100751.84
2022-10-01T13:21:14.928Z,100752.56
2022-10-01T13:23:58.269Z,100745.28
2022-10-01T13:26:32.298Z,100744.56
2022-10-01T13:29:06.300Z,100744.00
2022-10-01T13:31:51.626Z,100737.41
2022-10-01T13:34:36.508Z,100736.28
2022-10-01T13:37:13.692Z,100733.69
2022-10-01T13:39:43.538Z,100730.41
2022-10-01T13:42:16.214Z,100725.72
2022-10-01T13:44:43.659Z,100726.25
2022-10-01T13:47:13.342Z,100725.13
2022-10-01T13:49:42.999Z,100722.56
2022-10-01T13:52:19.344Z,100719.06
2022-10-01T13:54:50.362Z,100709.13
2022-10-01T13:57:31.766Z,100716.84
2022-10-01T14:00:04.877Z,100710.06
2022-10-01T14:02:37.307Z,100710.84
2022-10-01T14:05:12.064Z,100698.50
2022-10-01T14:07:40.043Z,100703.09
2022-10-01T14:10:11.110Z,100692.50
2022-10-01T14:13:00.000Z,100699.91
2022-10-01T14:15:56.835Z,100692.22
2022-10-01T14:18:26.190Z,100693.84
2022-10-01T14:21:08.311Z,100694.28
2022-10-01T14:23:53.993Z,100687.34
2022-10-01T14:26:41.561Z,100692.34
2022-10-01T14:29:24.801Z,100686.78
2022-10-01T14:32:11.132Z,100681.06
2022-10-01T14:34:42.377Z,100676.78
2022-10-01T14:37:16.941Z,100685.06
2022-10-01T14:39:45.004Z,100678.56
2022-10-01T14:42:18.436Z,100679.03
2022-10-01T14:44:46.583Z,100674.44
2022-10-01T14:47:21.113Z,100671.00
2022-10-01T14:49:49.027Z,100660.03
2022-10-01T14:52:16.177Z,100664.44
2022-10-01T14:54:46.096Z,100657.09
2022-10-01T14:57:19.000Z,100656.09
2022-10-01T14:59:47.369Z,100642.47
2022-10-01T15:02:21.591Z,100643.09
2022-10-01T15:04:50.758Z,100647.66
2022-10-01T15:07:18.504Z,100648.81
2022-10-01T15:09:46.054Z,100647.66
2022-10-01T15:12:15.867Z,100641.94
2022-10-01T15:14:43.731Z,100643.63
2022-10-01T15:17:22.235Z,100642.50
2022-10-01T15:19:52.246Z,100635.91
2022-10-01T15:22:22.911Z,100638.22
2022-10-01T15:24:51.944Z,100634.53
2022-10-01T15:27:20.346Z,100632.19
2022-10-01T15:29:56.066Z,100630.22
2022-10-01T15:32:24.580Z,100627.94
2022-10-01T15:34:56.278Z,100625.69
2022-10-01T15:37:34.487Z,100625.09
2022-10-01T15:40:02.957Z,100617.78
2022-10-01T15:42:32.884Z,100619.94
2022-10-01T15:45:09.770Z,100613.94
2022-10-01T15:47:37.537Z,100603.97
2022-10-01T15:50:10.572Z,100603.97
2022-10-01T15:52:50.581Z,100614.22
2022-10-01T15:55:26.641Z,100611.13
2022-10-01T15:57:56.894Z,100607.09
2022-10-01T16:00:28.791Z,100602.81
2022-10-01T16:02:57.610Z,100601.13
2022-10-01T16:05:26.813Z,100606.53
2022-10-01T16:07:58.646Z,100597.09
2022-10-01T16:10:29.017Z,100602.53
2022-10-01T16:12:56.259Z,100603.97
2022-10-01T16:15:30.873Z,100604.53
2022-10-01T16:17:59.278Z,100601.41
2022-10-01T16:20:34.777Z,100595.41
2022-10-01T16:23:21.189Z,100595.38
2022-10-01T16:25:48.478Z,100594.56
2022-10-01T16:28:25.919Z,100589.81
2022-10-01T16:30:53.342Z,100598.81
2022-10-01T16:33:20.918Z,100590.53
2022-10-01T16:35:48.217Z,100581.53
2022-10-01T16:38:15.517Z,100587.97
2022-10-01T16:40:43.880Z,100579.09
2022-10-01T16:43:16.684Z,100573.13
2022-10-01T16:45:44.651Z,100570.00
2022-10-01T16:48:13.591Z,100569.69
2022-10-01T16:50:42.142Z,100569.97
2022-10-01T16:53:13.181Z,100568.44
2022-10-01T16:55:40.453Z,100567.72
2022-10-01T16:58:08.152Z,100571.56
2022-10-01T17:00:37.276Z,100565.53
2022-10-01T17:03:06.649Z,100564.84
2022-10-01T17:05:35.777Z,100565.41
2022-10-01T17:08:11.411Z,100556.59
2022-10-01T17:10:45.189Z,100562.56
2022-10-01T17:13:12.906Z,100555.13
2022-10-01T17:15:41.127Z,100563.69
2022-10-01T17:18:09.772Z,100546.28
2022-10-01T17:20:38.264Z,100555.44
2022-10-01T17:23:06.004Z,100545.00
2022-10-01T17:25:35.692Z,100547.41
2022-10-01T17:28:04.140Z,100549.13
2022-10-01T17:30:31.636Z,100547.28
2022-10-01T17:33:02.544Z,100538.00
2022-10-01T17:35:30.057Z,100548.00
2022-10-01T17:37:57.315Z,100541.41
2022-10-01T17:40:24.863Z,100538.84
2022-10-01T17:42:52.125Z,100542.28
2022-10-01T17:45:19.446Z,100536.28
2022-10-01T17:47:47.506Z,100538.00
2022-10-01T17:50:15.009Z,100531.44
2022-10-01T17:52:42.291Z,100530.03
2022-10-01T17:55:09.894Z,100532.31
2022-10-01T17:57:37.153Z,100530.72
2022-10-01T18:00:04.840Z,100538.44
2022-10-01T18:02:43.367Z,100533.16
2022-10-01T18:05:12.806Z,100533.72
2022-10-01T18:07:40.685Z,100528.00
2022-10-01T18:10:09.313Z,100523.72
2022-10-01T18:12:36.685Z,100522.59
2022-10-01T18:15:04.107Z,100531.72
2022-10-01T18:17:32.190Z,100527.03
2022-10-01T18:19:59.791Z,100523.88
2022-10-01T18:22:27.510Z,100523.72
2022-10-01T18:24:54.737Z,100530.59
2022-10-01T18:27:22.109Z,100510.06
2022-10-01T18:29:49.426Z,100517.47
2022-10-01T18:32:18.803Z,100508.31
2022-10-01T18:34:45.963Z,100504.00
2022-10-01T18:37:24.494Z,100507.59
2022-10-01T18:40:14.834Z,100513.44
2022-10-01T18:42:48.604Z,100506.06
2022-10-01T18:45:17.871Z,100510.31
2022-10-01T18:48:13.495Z,100504.19
2022-10-01T18:50:48.591Z,100508.91
2022-10-01T18:53:38.840Z,100513.47
2022-10-01T18:56:06.068Z,100507.31
2022-10-01T18:58:36.255Z,100496.63
2022-10-01T19:01:10.947Z,100493.78
2022-10-01T19:03:41.313Z,100492.03
2022-10-01T19:06:08.555Z,100490.03
2022-10-01T19:08:35.735Z,100498.34
2022-10-01T19:11:07.045Z,100495.47
2022-10-01T19:13:37.012Z,100490.75
2022-10-01T19:16:10.104Z,100499.75
2022-10-01T19:18:51.993Z,100485.47
2022-10-01T19:21:25.172Z,100485.78
2022-10-01T19:24:01.279Z,100486.47
2022-10-01T19:26:31.136Z,100484.03
2022-10-01T19:29:04.561Z,100477.16
2022-10-01T19:31:39.227Z,100476.34
2022-10-01T19:34:09.679Z,100477.22
2022-10-01T19:36:43.663Z,100472.34
2022-10-01T19:39:12.808Z,100470.91
2022-10-01T19:41:47.394Z,100470.63
2022-10-01T19:44:33.025Z,100466.34
2022-10-01T19:47:20.572Z,100460.34
2022-10-01T19:49:50.262Z,100452.34
2022-10-01T19:52:18.419Z,100454.94
2022-10-01T19:54:48.912Z,100463.53
2022-10-01T19:57:23.849Z,100448.66
2022-10-01T19:59:55.025Z,100452.34
2022-10-01T20:02:32.765Z,100450.91
2022-10-01T20:05:09.690Z,100437.81
2022-10-01T20:07:45.730Z,100444.66
2022-10-01T20:10:12.980Z,100438.78
2022-10-01T20:12:40.141Z,100439.25
2022-10-01T20:15:26.832Z,100441.06
2022-10-01T20:18:13.275Z,100433.94
2022-10-01T20:20:43.688Z,100441.19
2022-10-01T20:23:29.428Z,100437.09
2022-10-01T20:26:06.086Z,100443.50
2022-10-01T20:28:52.891Z,100433.53
2022-10-01T20:31:44.517Z,100430.13
2022-10-01T20:34:31.044Z,100432.66
2022-10-01T20:37:09.189Z,100426.00
2022-10-01T20:39:41.117Z,100427.53
2022-10-01T20:42:14.488Z,100420.53
2022-10-01T20:44:42.184Z,100438.66
2022-10-01T20:47:32.136Z,100428.38
2022-10-01T20:50:18.128Z,100429.41
2022-10-01T20:52:48.226Z,100429.69
2022-10-01T20:55:26.683Z,100426.97
2022-10-01T20:57:56.106Z,100430.69
2022-10-01T21:00:24.390Z,100433.09
2022-10-01T21:03:11.192Z,100428.69
2022-10-01T21:05:42.727Z,100421.06
2022-10-01T21:08:19.164Z,100427.81
2022-10-01T21:10:48.176Z,100431.25
2022-10-01T21:13:15.341Z,100430.81
2022-10-01T21:15:45.345Z,100425.00
2022-10-01T21:18:21.154Z,100424.69
2022-10-01T21:20:56.232Z,100426.38
2022-10-01T21:23:23.519Z,100422.13
2022-10-01T21:25:50.679Z,100417.53
2022-10-01T21:28:36.320Z,100421.56
2022-10-01T21:31:06.309Z,100422.88
2022-10-01T21:33:34.888Z,100417.97
2022-10-01T21:36:07.098Z,100417.25
2022-10-01T21:38:44.539Z,100420.72
2022-10-01T21:41:23.718Z,100419.56
2022-10-01T21:43:56.579Z,100414.41
2022-10-01T21:46:37.072Z,100410.72
2022-10-01T21:49:10.675Z,100412.97
2022-10-01T21:51:40.696Z,100408.13
2022-10-01T21:54:31.225Z,100413.44
2022-10-01T21:57:02.464Z,100408.72
2022-10-01T21:59:49.973Z,100412.16
2022-10-01T22:02:27.895Z,100404.13
2022-10-01T22:05:11.058Z,100403.25
2022-10-01T22:07:38.304Z,100399.59
2022-10-01T22:10:12.226Z,100403.31
2022-10-01T22:12:41.451Z,100406.72
2022-10-01T22:15:23.647Z,100401.28
2022-10-01T22:17:53.793Z,100390.16
2022-10-01T22:20:23.682Z,100396.31
2022-10-01T22:22:55.044Z,100388.31
2022-10-01T22:25:22.400Z,100388.44
2022-10-01T22:27:57.390Z,100391.00
2022-10-01T22:30:33.564Z,100394.13
2022-10-01T22:33:03.840Z,100378.69
2022-10-01T22:35:33.481Z,100389.19
2022-10-01T22:38:05.569Z,100382.16
2022-10-01T22:40:39.733Z,100377.91
2022-10-01T22:43:11.090Z,100375.25
2022-10-01T22:45:53.340Z,100377.03
2022-10-01T22:48:26.476Z,100373.88
2022-10-01T22:51:10.205Z,100376.41
2022-10-01T22:54:01.611Z,100377.50
2022-10-01T22:56:48.472Z,100387.88
2022-10-01T22:59:15.871Z,100370.09
2022-10-01T23:01:46.062Z,100379.72
2022-10-01T23:04:35.508Z,100383.28
2022-10-01T23:07:11.489Z,100370.16
2022-10-01T23:09:46.093Z,100381.56
2022-10-01T23:12:19.139Z,100374.03
2022-10-01T23:14:49.182Z,100383.84
2022-10-01T23:17:22.990Z,100371.59
2022-10-01T23:20:09.576Z,100370.72
2022-10-01T23:22:54.189Z,100372.44
2022-10-01T23:25:33.513Z,100373.25
2022-10-01T23:28:07.898Z,100366.72
2022-10-01T23:30:44.513Z,100371.25
2022-10-01T23:33:30.799Z,100378.19
2022-10-01T23:35:58.068Z,100368.72
2022-10-01T23:38:25.203Z,100374.88
2022-10-01T23:40:52.373Z,100374.34
2022-10-01T23:43:24.442Z,100361.16
2022-10-01T23:45:51.764Z,100361.56
2022-10-01T23:48:33.331Z,100366.13
2022-10-01T23:51:03.061Z,100363.78
2022-10-01T23:53:33.988Z,100369.31
2022-10-01T23:56:34.567Z,100359.25
2022-10-01T23:59:04.523Z,100350.38
